Terminal Aerodrome Forecast
Issued by NWS Paducah, KY

Home | Current Version | Previous Version | Text Only | Print | Product List | Glossary On
Versions: 1 2 3 4 5 6 7 8 9 10 11 12 13 14 15 16 17 18 19 20 21 22 23 24 25 26
000
FTUS43 KPAH 262338
TAFPAH
TAF
KPAH 262338Z 2700/2724 VRB03KT P6SM BKN250
     FM270900 00000KT 3SM BR SCT020
     FM271400 11004KT P6SM SCT015
     FM272100 14005KT P6SM -SHRA VCTS BKN040CB=

USA.gov is the U.S. government's official web portal to all federal, state and local government web resources and services.